Time;durP1;ratioP1;P1;durP2;ratioP2;P2;SDS_P1;SDS_P2;PMS_P1;PMS_P2;Temp;Humidity;BMP_temperature;BMP_pressure;BME280_temperature;BME280_humidity;BME280_pressure;Samples;Min_cycle;Max_cycle;Signal;HPM_P1;HPM_P2
2021/12/14 00:01:45;;;;;;;;;144.75;137.50;;;;;;;;5051016;28;9496;-79
2021/12/14 00:04:29;;;;;;;;;140.20;138.60;;;;;;;;5052143;27;8794;-79
2021/12/14 00:06:55;;;;;;;;;154.80;150.80;;;;;;;;5050348;27;8799;-80
2021/12/14 00:09:25;;;;;;;;;151.20;147.60;;;;;;;;5051525;27;8831;-79
2021/12/14 00:16:58;;;;;;;;;133.50;129.50;;;;;;;;5052045;27;8791;-78
2021/12/14 00:19:25;;;;;;;;;156.60;151.20;;;;;;;;5049429;27;8807;-78
2021/12/14 00:21:54;;;;;;;;;132.00;127.67;;;;;;;;5052141;27;8988;-78
2021/12/14 00:24:20;;;;;;;;;144.20;142.20;;;;;;;;5051920;28;10694;-78
2021/12/14 00:26:50;;;;;;;;;130.50;129.25;;;;;;;;5052150;27;8850;-78
2021/12/14 00:29:17;;;;;;;;;133.60;128.60;;;;;;;;5056654;28;8813;-78
2021/12/14 00:31:43;;;;;;;;;147.60;145.80;;;;;;;;5060440;27;8796;-78
2021/12/14 00:34:09;;;;;;;;;140.00;138.00;;;;;;;;5050870;28;9563;-78
2021/12/14 00:36:35;;;;;;;;;146.00;145.60;;;;;;;;5051916;27;8800;-78
2021/12/14 00:39:02;;;;;;;;;149.00;144.80;;;;;;;;5051381;28;8811;-78
2021/12/14 00:41:29;;;;;;;;;153.60;149.40;;;;;;;;5050711;27;9028;-78
2021/12/14 00:43:55;;;;;;;;;163.60;161.60;;;;;;;;5064889;27;8872;-78
2021/12/14 00:46:20;;;;;;;;;166.80;164.80;;;;;;;;5054146;27;8792;-78
2021/12/14 00:48:47;;;;;;;;;164.75;160.00;;;;;;;;5051384;28;8811;-78
2021/12/14 00:51:12;;;;;;;;;140.40;137.20;;;;;;;;5051829;27;11577;-78
2021/12/14 00:53:38;;;;;;;;;154.80;152.00;;;;;;;;5051336;27;8808;-78
2021/12/14 00:56:06;;;;;;;;;190.60;188.60;;;;;;;;5063587;27;8838;-78
2021/12/14 00:58:31;;;;;;;;;151.40;149.20;;;;;;;;5037082;28;9744;-78
2021/12/14 01:00:59;;;;;;;;;159.80;159.20;;;;;;;;5051529;27;9239;-78
2021/12/14 01:03:25;;;;;;;;;195.80;192.40;;;;;;;;5051515;28;9690;-78
2021/12/14 01:05:51;;;;;;;;;157.75;153.50;;;;;;;;5064990;27;8782;-78
2021/12/14 01:08:19;;;;;;;;;174.50;173.50;;;;;;;;5062580;27;8824;-78
2021/12/14 01:10:56;;;;;;;;;157.80;151.60;;;;;;;;5051040;28;11737;-79
2021/12/14 01:13:25;;;;;;;;;174.80;173.80;;;;;;;;5051861;28;9662;-79
2021/12/14 01:21:18;;;;;;;;;164.20;162.60;;;;;;;;5051597;27;8825;-79
2021/12/14 01:23:45;;;;;;;;;165.00;163.00;;;;;;;;5049745;28;8806;-79
2021/12/14 01:26:13;;;;;;;;;185.00;185.00;;;;;;;;5051483;27;8893;-79
2021/12/14 01:28:40;;;;;;;;;175.40;171.00;;;;;;;;5051238;28;8799;-79
2021/12/14 01:31:19;;;;;;;;;190.20;188.00;;;;;;;;5051018;27;8788;-79
2021/12/14 01:33:47;;;;;;;;;154.60;150.40;;;;;;;;5050943;28;8792;-80
2021/12/14 01:36:31;;;;;;;;;181.00;177.20;;;;;;;;5051636;28;8810;-79
2021/12/14 01:39:22;;;;;;;;;183.80;181.60;;;;;;;;5050990;28;8804;-79
2021/12/14 01:41:51;;;;;;;;;163.00;161.20;;;;;;;;5049587;28;8815;-79
2021/12/14 01:44:17;;;;;;;;;161.25;155.75;;;;;;;;5067899;27;8785;-79
2021/12/14 01:46:44;;;;;;;;;179.40;173.60;;;;;;;;5040902;27;8818;-79
2021/12/14 01:49:11;;;;;;;;;150.75;147.00;;;;;;;;5051500;27;8820;-79
2021/12/14 01:51:38;;;;;;;;;165.60;158.00;;;;;;;;5049615;28;11546;-78
2021/12/14 01:54:05;;;;;;;;;180.60;179.00;;;;;;;;5051052;27;9729;-79
2021/12/14 01:56:31;;;;;;;;;164.80;164.20;;;;;;;;5067706;27;8780;-79
2021/12/14 01:58:59;;;;;;;;;147.40;144.80;;;;;;;;5050986;27;8789;-78
2021/12/14 02:01:35;;;;;;;;;156.40;154.00;;;;;;;;5051194;28;8972;-79
2021/12/14 02:04:06;;;;;;;;;182.80;181.40;;;;;;;;5050822;28;8736;-78
2021/12/14 02:06:32;;;;;;;;;157.80;153.40;;;;;;;;5067144;27;8808;-78
2021/12/14 02:09:03;;;;;;;;;152.00;149.80;;;;;;;;5050240;27;8828;-78
2021/12/14 02:11:37;;;;;;;;;131.50;129.25;;;;;;;;5050848;28;8893;-78
2021/12/14 02:14:03;;;;;;;;;136.00;133.25;;;;;;;;5050802;28;8772;-78
2021/12/14 02:16:29;;;;;;;;;142.40;140.60;;;;;;;;5051137;28;8800;-78
2021/12/14 02:18:57;;;;;;;;;138.20;135.40;;;;;;;;5050520;27;9781;-78
2021/12/14 02:21:23;;;;;;;;;135.20;129.40;;;;;;;;5051229;28;8780;-78
2021/12/14 02:23:51;;;;;;;;;138.40;136.00;;;;;;;;5050072;27;8800;-78
2021/12/14 02:26:25;;;;;;;;;154.00;149.75;;;;;;;;5051107;28;8776;-78
2021/12/14 02:28:52;;;;;;;;;142.33;135.33;;;;;;;;5050149;27;8808;-78
2021/12/14 02:31:21;;;;;;;;;130.40;129.20;;;;;;;;5050883;28;10344;-78
2021/12/14 02:33:48;;;;;;;;;152.80;150.40;;;;;;;;5050076;27;8764;-78
2021/12/14 02:36:18;;;;;;;;;148.20;146.40;;;;;;;;5050879;28;8796;-78
2021/12/14 02:38:45;;;;;;;;;144.40;141.80;;;;;;;;5053913;27;8798;-80
2021/12/14 02:41:10;;;;;;;;;141.00;139.00;;;;;;;;5060054;27;8876;-79
2021/12/14 02:43:43;;;;;;;;;135.00;133.50;;;;;;;;5057822;27;8792;-79
2021/12/14 02:46:11;;;;;;;;;136.00;133.40;;;;;;;;5044681;27;8967;-79
2021/12/14 02:48:38;;;;;;;;;144.50;141.25;;;;;;;;5047868;28;8831;-79
2021/12/14 02:51:09;;;;;;;;;136.60;135.00;;;;;;;;5050301;27;9746;-79
2021/12/14 02:53:34;;;;;;;;;140.00;137.80;;;;;;;;5050146;28;8768;-80
2021/12/14 02:55:59;;;;;;;;;142.33;141.33;;;;;;;;5065754;27;8808;-79
2021/12/14 02:58:25;;;;;;;;;136.25;135.25;;;;;;;;5049483;28;9578;-79
2021/12/14 03:00:51;;;;;;;;;143.80;140.20;;;;;;;;5050123;27;8776;-79
2021/12/14 03:03:17;;;;;;;;;145.00;140.80;;;;;;;;5050246;27;9768;-78
2021/12/14 03:05:43;;;;;;;;;136.40;132.80;;;;;;;;5057810;27;8835;-79
2021/12/14 03:08:28;;;;;;;;;145.40;139.00;;;;;;;;5076128;27;8880;-79
2021/12/14 03:11:09;;;;;;;;;136.60;135.80;;;;;;;;5049820;27;8785;-79
2021/12/14 03:13:35;;;;;;;;;143.20;142.00;;;;;;;;5048957;28;8880;-79
2021/12/14 03:16:02;;;;;;;;;133.67;132.00;;;;;;;;5049872;27;8780;-80
2021/12/14 03:18:29;;;;;;;;;136.40;135.00;;;;;;;;5048681;28;11583;-81
2021/12/14 03:21:03;;;;;;;;;142.80;139.60;;;;;;;;5048193;27;8819;-79
2021/12/14 03:23:35;;;;;;;;;148.80;147.60;;;;;;;;5050210;27;9658;-78
2021/12/14 03:26:02;;;;;;;;;154.40;152.00;;;;;;;;5048004;27;8800;-78
2021/12/14 03:28:28;;;;;;;;;137.75;136.00;;;;;;;;5050421;27;8804;-78
2021/12/14 03:31:03;;;;;;;;;134.20;129.80;;;;;;;;5049291;27;12507;-79
2021/12/14 03:33:30;;;;;;;;;142.20;139.60;;;;;;;;5049892;27;8765;-79
2021/12/14 03:35:59;;;;;;;;;141.40;141.20;;;;;;;;5049100;28;8835;-79
2021/12/14 03:38:27;;;;;;;;;143.00;136.75;;;;;;;;5049658;28;9771;-79
2021/12/14 03:40:56;;;;;;;;;141.60;138.60;;;;;;;;5047844;27;8881;-79
2021/12/14 03:43:21;;;;;;;;;131.80;129.20;;;;;;;;5068461;27;8766;-79
2021/12/14 03:45:46;;;;;;;;;134.25;133.50;;;;;;;;5051406;27;8803;-79
2021/12/14 03:48:12;;;;;;;;;141.75;136.25;;;;;;;;5043481;28;8820;-79
2021/12/14 03:50:41;;;;;;;;;139.75;138.50;;;;;;;;5049600;27;8796;-79
2021/12/14 03:53:11;;;;;;;;;142.00;137.50;;;;;;;;5049108;27;8765;-78
2021/12/14 03:55:38;;;;;;;;;133.60;130.80;;;;;;;;5066722;27;8928;-79
2021/12/14 03:58:09;;;;;;;;;135.40;133.20;;;;;;;;5052957;28;8900;-78
2021/12/14 04:00:36;;;;;;;;;146.75;143.25;;;;;;;;5052868;27;8789;-78
2021/12/14 04:03:05;;;;;;;;;136.20;135.80;;;;;;;;5052480;28;9730;-78
2021/12/14 04:05:30;;;;;;;;;143.40;136.40;;;;;;;;5051296;27;8957;-78
2021/12/14 04:07:56;;;;;;;;;148.00;145.25;;;;;;;;5066750;27;9578;-78
2021/12/14 04:10:24;;;;;;;;;142.50;138.00;;;;;;;;5050983;28;9590;-78
2021/12/14 04:12:50;;;;;;;;;140.75;138.00;;;;;;;;5052134;27;8781;-78
2021/12/14 04:15:15;;;;;;;;;158.40;155.40;;;;;;;;5052469;28;8784;-78
2021/12/14 04:17:41;;;;;;;;;147.00;141.25;;;;;;;;5052146;27;8915;-78
2021/12/14 04:20:17;;;;;;;;;149.50;148.25;;;;;;;;5052685;28;8796;-78
2021/12/14 04:22:48;;;;;;;;;139.75;137.00;;;;;;;;5050312;28;8768;-78
2021/12/14 04:25:15;;;;;;;;;156.40;152.80;;;;;;;;5052625;28;9248;-78
2021/12/14 04:27:40;;;;;;;;;146.20;142.20;;;;;;;;5052145;27;8818;-78
2021/12/14 04:30:08;;;;;;;;;151.60;149.60;;;;;;;;5052295;27;8792;-78
2021/12/14 04:32:33;;;;;;;;;164.17;163.33;;;;;;;;5050787;28;8803;-78
2021/12/14 04:34:59;;;;;;;;;165.00;158.25;;;;;;;;5051795;28;8803;-79
2021/12/14 04:37:24;;;;;;;;;163.60;162.00;;;;;;;;5051952;27;8828;-78
2021/12/14 04:40:15;;;;;;;;;158.00;155.75;;;;;;;;5050672;28;8844;-78
2021/12/14 04:53:45;;;;;;;;;165.40;163.00;;;;;;;;5051551;28;8864;-79
2021/12/14 04:56:13;;;;;;;;;151.25;150.00;;;;;;;;5067011;27;8776;-79
2021/12/14 04:58:40;;;;;;;;;164.00;161.00;;;;;;;;5051131;28;8776;-78
2021/12/14 05:01:07;;;;;;;;;177.33;172.50;;;;;;;;5052067;27;8776;-78
2021/12/14 05:03:38;;;;;;;;;172.60;169.60;;;;;;;;5051699;28;8894;-79
2021/12/14 05:06:13;;;;;;;;;165.20;163.80;;;;;;;;5075343;27;8773;-79
2021/12/14 05:11:10;;;;;;;;;159.20;158.00;;;;;;;;5051835;27;8951;-79
2021/12/14 05:13:40;;;;;;;;;168.40;161.00;;;;;;;;5050338;27;8808;-79
2021/12/14 05:16:05;;;;;;;;;138.50;137.50;;;;;;;;5050595;28;8840;-79
2021/12/14 05:18:31;;;;;;;;;158.25;154.50;;;;;;;;5051577;27;8914;-79
2021/12/14 05:20:58;;;;;;;;;136.50;135.75;;;;;;;;5051396;28;8839;-79
2021/12/14 05:23:27;;;;;;;;;143.50;139.00;;;;;;;;5051518;27;8776;-79
2021/12/14 05:25:53;;;;;;;;;147.80;145.40;;;;;;;;5051382;28;9790;-79
2021/12/14 05:28:20;;;;;;;;;150.25;146.75;;;;;;;;5051498;27;8993;-79
2021/12/14 05:30:46;;;;;;;;;153.00;150.00;;;;;;;;5051406;28;8788;-79
2021/12/14 05:33:16;;;;;;;;;154.00;152.80;;;;;;;;5051593;27;8768;-79
2021/12/14 05:35:45;;;;;;;;;152.00;148.80;;;;;;;;5043388;28;8845;-79
2021/12/14 05:38:20;;;;;;;;;155.40;153.00;;;;;;;;5051508;28;8792;-79
2021/12/14 05:43:18;;;;;;;;;144.00;136.50;;;;;;;;5067593;27;8762;-79
2021/12/14 05:45:46;;;;;;;;;141.20;136.60;;;;;;;;5065276;27;11542;-80
2021/12/14 05:48:16;;;;;;;;;142.00;139.00;;;;;;;;5059583;28;8805;-79
2021/12/14 05:50:44;;;;;;;;;147.25;145.25;;;;;;;;5063239;28;8935;-80
2021/12/14 05:53:16;;;;;;;;;148.80;144.80;;;;;;;;5051152;27;8817;-80
2021/12/14 05:55:41;;;;;;;;;137.60;135.40;;;;;;;;5066601;27;8795;-80
2021/12/14 05:58:11;;;;;;;;;142.67;139.67;;;;;;;;5051270;28;8822;-80
2021/12/14 06:00:43;;;;;;;;;145.60;141.00;;;;;;;;5050028;27;8801;-80
2021/12/14 06:03:12;;;;;;;;;135.80;134.00;;;;;;;;5051365;28;8801;-80
2021/12/14 06:05:38;;;;;;;;;143.00;139.40;;;;;;;;5056751;27;8783;-80
2021/12/14 06:08:03;;;;;;;;;133.75;132.50;;;;;;;;5061427;27;9615;-80
2021/12/14 06:10:29;;;;;;;;;139.25;137.25;;;;;;;;5049683;28;8840;-79
2021/12/14 06:12:55;;;;;;;;;147.75;141.00;;;;;;;;5050508;27;8832;-80
2021/12/14 06:15:25;;;;;;;;;135.50;134.50;;;;;;;;5049542;27;12326;-80
2021/12/14 06:17:51;;;;;;;;;127.75;126.00;;;;;;;;5050563;28;8725;-80
2021/12/14 06:20:21;;;;;;;;;148.00;143.75;;;;;;;;5050887;27;9686;-79
2021/12/14 06:22:47;;;;;;;;;124.60;122.40;;;;;;;;5050339;28;8926;-79
2021/12/14 06:25:16;;;;;;;;;145.00;143.80;;;;;;;;5051131;27;8772;-79
2021/12/14 06:27:43;;;;;;;;;145.60;142.60;;;;;;;;5037441;28;8932;-80
2021/12/14 06:30:10;;;;;;;;;135.80;128.20;;;;;;;;5049484;27;8993;-79
2021/12/14 06:32:40;;;;;;;;;140.00;138.60;;;;;;;;5051114;27;8772;-79
2021/12/14 06:35:09;;;;;;;;;145.00;140.67;;;;;;;;5050477;27;8877;-79
2021/12/14 06:38:11;;;;;;;;;149.00;145.20;;;;;;;;5050879;28;8937;-79
2021/12/14 06:40:40;;;;;;;;;146.80;142.20;;;;;;;;5050837;28;8749;-79
2021/12/14 06:43:09;;;;;;;;;135.50;131.25;;;;;;;;5054939;27;8897;-80
2021/12/14 06:45:39;;;;;;;;;152.60;147.80;;;;;;;;5049971;27;8775;-80
2021/12/14 06:48:09;;;;;;;;;145.60;141.60;;;;;;;;5043842;27;8828;-79
2021/12/14 06:50:41;;;;;;;;;142.40;139.60;;;;;;;;5036554;28;8919;-79
2021/12/14 06:53:09;;;;;;;;;146.80;141.40;;;;;;;;5050309;28;8725;-79
2021/12/14 06:55:35;;;;;;;;;155.75;151.25;;;;;;;;5065196;27;9010;-79
2021/12/14 06:58:11;;;;;;;;;141.80;137.80;;;;;;;;5049346;28;8788;-79
2021/12/14 07:00:39;;;;;;;;;146.80;144.60;;;;;;;;5049213;28;8804;-79
2021/12/14 07:03:04;;;;;;;;;140.80;137.80;;;;;;;;5050534;27;8784;-79
2021/12/14 07:05:31;;;;;;;;;142.75;140.00;;;;;;;;5050310;27;8831;-80
2021/12/14 07:07:57;;;;;;;;;142.00;138.00;;;;;;;;5106127;27;8909;-80
2021/12/14 07:10:23;;;;;;;;;145.20;140.60;;;;;;;;5050180;28;8792;-79
2021/12/14 07:12:48;;;;;;;;;145.75;143.75;;;;;;;;5048689;27;8843;-79
2021/12/14 07:15:17;;;;;;;;;149.00;143.00;;;;;;;;5050305;28;8827;-79
2021/12/14 07:17:46;;;;;;;;;160.80;158.00;;;;;;;;5049946;28;8789;-79
2021/12/14 07:20:11;;;;;;;;;159.00;154.40;;;;;;;;5049903;27;8903;-79
2021/12/14 07:22:37;;;;;;;;;141.50;138.25;;;;;;;;5048534;28;8907;-79
2021/12/14 07:25:02;;;;;;;;;152.50;148.25;;;;;;;;5049573;27;8831;-79
2021/12/14 07:27:29;;;;;;;;;156.25;153.50;;;;;;;;5050274;28;8924;-79
2021/12/14 07:30:08;;;;;;;;;145.40;144.00;;;;;;;;5051525;27;8864;-79
2021/12/14 07:32:40;;;;;;;;;142.20;141.20;;;;;;;;5053403;27;8756;-80
2021/12/14 07:35:14;;;;;;;;;137.25;135.00;;;;;;;;5052854;27;8822;-80
2021/12/14 07:37:40;;;;;;;;;149.40;146.60;;;;;;;;5052367;28;11499;-80
2021/12/14 07:40:06;;;;;;;;;142.00;138.67;;;;;;;;5052647;27;8824;-80
2021/12/14 07:42:31;;;;;;;;;146.75;140.50;;;;;;;;5052949;28;8793;-80
2021/12/14 07:44:56;;;;;;;;;131.00;130.00;;;;;;;;5104310;27;8800;-79
2021/12/14 07:47:22;;;;;;;;;157.50;154.75;;;;;;;;5050133;27;8828;-79
2021/12/14 07:49:54;;;;;;;;;147.00;138.50;;;;;;;;5052462;28;9668;-79
2021/12/14 07:52:21;;;;;;;;;135.25;131.50;;;;;;;;5052172;28;8776;-79
2021/12/14 07:54:46;;;;;;;;;142.60;138.20;;;;;;;;5053429;27;8810;-81
2021/12/14 07:57:11;;;;;;;;;144.00;143.00;;;;;;;;5052402;27;8808;-78
2021/12/14 07:59:40;;;;;;;;;146.25;141.25;;;;;;;;5052464;28;8904;-86
2021/12/14 08:02:11;;;;;;;;;128.75;126.75;;;;;;;;5050720;27;8883;-79
2021/12/14 08:04:38;;;;;;;;;123.40;122.60;;;;;;;;5052013;27;11039;-80
2021/12/14 08:07:03;;;;;;;;;132.00;126.20;;;;;;;;5068681;27;9789;-80
2021/12/14 08:09:49;;;;;;;;;129.80;127.20;;;;;;;;5051342;28;8966;-79
2021/12/14 08:12:34;;;;;;;;;128.20;126.00;;;;;;;;5050978;28;8804;-79
2021/12/14 08:15:03;;;;;;;;;125.40;122.20;;;;;;;;5071096;28;9000;-79
2021/12/14 08:17:28;;;;;;;;;139.80;131.20;;;;;;;;5122550;27;8812;-80
2021/12/14 08:19:53;;;;;;;;;126.50;123.75;;;;;;;;5052078;27;11548;-79
2021/12/14 08:22:29;;;;;;;;;135.50;133.00;;;;;;;;5052026;27;10053;-80
2021/12/14 08:24:55;;;;;;;;;134.60;130.00;;;;;;;;5051521;27;8822;-77
2021/12/14 08:27:22;;;;;;;;;143.40;141.80;;;;;;;;5062394;27;8826;-80
2021/12/14 08:29:52;;;;;;;;;144.17;139.00;;;;;;;;5060638;27;8804;-80
2021/12/14 08:32:20;;;;;;;;;134.40;129.60;;;;;;;;5052233;27;8773;-79
2021/12/14 08:34:47;;;;;;;;;145.80;143.20;;;;;;;;5050553;28;8843;-80
2021/12/14 08:37:18;;;;;;;;;130.60;127.20;;;;;;;;5051843;28;8803;-79
2021/12/14 08:39:44;;;;;;;;;146.50;144.33;;;;;;;;5050073;27;9785;-78
2021/12/14 08:42:15;;;;;;;;;150.00;146.20;;;;;;;;5038180;28;8796;-78
2021/12/14 08:44:41;;;;;;;;;139.50;135.25;;;;;;;;5058093;27;8780;-77
2021/12/14 08:47:11;;;;;;;;;135.60;131.20;;;;;;;;5052473;28;8780;-77
2021/12/14 08:49:37;;;;;;;;;137.25;130.00;;;;;;;;5052098;27;8784;-77
2021/12/14 08:52:04;;;;;;;;;141.83;139.17;;;;;;;;5051675;28;8816;-81
2021/12/14 08:54:30;;;;;;;;;148.67;145.33;;;;;;;;5050342;27;8884;-78
2021/12/14 08:57:11;;;;;;;;;137.80;135.20;;;;;;;;5051389;28;8794;-77
2021/12/14 08:59:37;;;;;;;;;144.60;141.80;;;;;;;;5051347;28;9780;-77
2021/12/14 09:02:06;;;;;;;;;142.67;138.17;;;;;;;;5055568;27;8768;-76
2021/12/14 09:04:36;;;;;;;;;152.20;149.60;;;;;;;;5050985;27;8788;-76
2021/12/14 09:07:05;;;;;;;;;147.00;143.50;;;;;;;;5115814;27;11593;-76
2021/12/14 09:09:31;;;;;;;;;149.50;147.17;;;;;;;;5051263;27;11365;-76
2021/12/14 09:12:09;;;;;;;;;147.00;145.75;;;;;;;;5051589;27;8800;-76
2021/12/14 09:14:34;;;;;;;;;148.25;147.00;;;;;;;;5051046;27;8823;-76
2021/12/14 09:17:00;;;;;;;;;156.00;150.75;;;;;;;;5050854;28;8800;-76
2021/12/14 09:19:38;;;;;;;;;150.50;147.00;;;;;;;;5060013;27;8794;-76
2021/12/14 09:22:08;;;;;;;;;155.17;147.50;;;;;;;;5054132;28;11568;-75
2021/12/14 09:24:33;;;;;;;;;154.40;151.60;;;;;;;;5051297;27;8804;-76
2021/12/14 09:27:04;;;;;;;;;151.80;146.80;;;;;;;;5051423;28;8820;-78
2021/12/14 09:29:30;;;;;;;;;148.67;144.33;;;;;;;;5051662;27;8855;-77
2021/12/14 09:31:57;;;;;;;;;166.60;162.40;;;;;;;;5056198;28;8796;-80
2021/12/14 09:34:24;;;;;;;;;158.60;156.60;;;;;;;;5051373;27;8800;-79
2021/12/14 09:36:51;;;;;;;;;158.80;158.40;;;;;;;;5050890;28;8776;-79
2021/12/14 09:39:22;;;;;;;;;174.20;171.80;;;;;;;;5048806;27;9247;-79
2021/12/14 09:41:53;;;;;;;;;162.83;157.17;;;;;;;;5038386;28;9788;-79
2021/12/14 09:44:20;;;;;;;;;183.50;182.67;;;;;;;;5105731;27;8858;-79
2021/12/14 09:46:46;;;;;;;;;198.60;196.60;;;;;;;;5052972;27;8819;-79
2021/12/14 09:49:14;;;;;;;;;231.00;226.50;;;;;;;;5051271;27;8834;-79
2021/12/14 09:51:51;;;;;;;;;240.00;238.80;;;;;;;;5050748;28;8761;-79
2021/12/14 09:54:19;;;;;;;;;265.20;262.60;;;;;;;;5053073;27;8831;-79
2021/12/14 09:56:47;;;;;;;;;286.17;283.50;;;;;;;;5098879;27;11583;-79
2021/12/14 09:59:13;;;;;;;;;375.29;372.43;;;;;;;;5051125;28;8872;-79
2021/12/14 10:01:42;;;;;;;;;297.83;293.33;;;;;;;;5051211;27;8792;-79
2021/12/14 10:04:10;;;;;;;;;364.86;363.14;;;;;;;;5051062;28;8795;-79
2021/12/14 10:06:35;;;;;;;;;300.29;298.14;;;;;;;;5097082;27;8821;-79
2021/12/14 10:09:05;;;;;;;;;275.40;270.60;;;;;;;;5057031;27;8855;-79
2021/12/14 10:11:47;;;;;;;;;288.33;284.33;;;;;;;;5050016;27;8792;-79
2021/12/14 10:14:12;;;;;;;;;401.50;401.50;;;;;;;;5039456;28;11567;-79
2021/12/14 10:16:38;;;;;;;;;397.17;393.50;;;;;;;;5037468;27;11787;-79
2021/12/14 10:19:09;;;;;;;;;278.80;275.20;;;;;;;;5050962;28;8812;-79
2021/12/14 10:21:49;;;;;;;;;346.67;344.33;;;;;;;;5050754;27;8803;-79
2021/12/14 10:24:15;;;;;;;;;258.00;253.17;;;;;;;;5050539;28;8784;-79
2021/12/14 10:26:43;;;;;;;;;274.00;273.60;;;;;;;;5050545;27;8853;-79
2021/12/14 10:29:08;;;;;;;;;245.83;240.00;;;;;;;;5049113;28;8993;-79
2021/12/14 10:31:36;;;;;;;;;239.80;236.00;;;;;;;;5050617;27;8870;-79
2021/12/14 10:34:04;;;;;;;;;266.00;266.00;;;;;;;;5049798;27;8823;-79
2021/12/14 10:36:36;;;;;;;;;273.20;267.80;;;;;;;;5050264;27;9052;-79
2021/12/14 10:44:21;;;;;;;;;244.67;243.33;;;;;;;;5064825;27;8920;-79
2021/12/14 10:46:50;;;;;;;;;220.00;218.67;;;;;;;;5051941;27;8826;-79
2021/12/14 10:49:17;;;;;;;;;262.40;257.40;;;;;;;;5050267;28;8824;-79
2021/12/14 10:51:44;;;;;;;;;300.50;289.00;;;;;;;;5049560;27;8812;-79
2021/12/14 10:54:13;;;;;;;;;285.83;283.00;;;;;;;;5050020;28;8807;-79
2021/12/14 10:56:41;;;;;;;;;338.80;332.00;;;;;;;;5073601;27;8916;-79
2021/12/14 10:59:07;;;;;;;;;335.86;330.71;;;;;;;;5050061;28;8881;-78
2021/12/14 11:01:34;;;;;;;;;366.14;357.57;;;;;;;;5050042;27;8780;-79
2021/12/14 11:04:10;;;;;;;;;337.67;332.33;;;;;;;;5049079;28;8808;-78
2021/12/14 11:06:38;;;;;;;;;400.17;395.33;;;;;;;;5077657;27;9784;-79
2021/12/14 11:11:33;;;;;;;;;381.20;374.20;;;;;;;;5052898;27;8792;-79
2021/12/14 11:14:02;;;;;;;;;424.83;418.17;;;;;;;;5052440;28;8831;-79
2021/12/14 11:18:08;;;;;;;;;261.40;257.80;;;;;;;;5035880;27;8925;-79
2021/12/14 11:19:18;;;;;;;;;289.50;286.17;;;;;;;;5052819;27;8822;-79
2021/12/14 11:21:44;;;;;;;;;305.60;303.20;;;;;;;;5052225;28;8812;-79
2021/12/14 11:24:09;;;;;;;;;311.00;307.33;;;;;;;;5052451;27;8816;-79
2021/12/14 11:26:35;;;;;;;;;278.60;276.60;;;;;;;;5052909;28;9570;-79
2021/12/14 11:29:13;;;;;;;;;246.75;239.75;;;;;;;;5052526;27;8800;-79
2021/12/14 11:31:50;;;;;;;;;281.67;277.00;;;;;;;;5052778;28;8830;-79
2021/12/14 11:34:36;;;;;;;;;234.60;228.60;;;;;;;;5050891;27;8917;-79
2021/12/14 11:37:07;;;;;;;;;258.83;253.67;;;;;;;;5040065;27;8839;-79
2021/12/14 11:39:38;;;;;;;;;229.00;221.00;;;;;;;;5054839;28;8784;-80
2021/12/14 11:42:22;;;;;;;;;199.17;197.67;;;;;;;;5062389;27;8800;-76
2021/12/14 11:44:50;;;;;;;;;215.20;210.40;;;;;;;;5074067;27;8722;-76
2021/12/14 11:47:41;;;;;;;;;199.80;198.00;;;;;;;;5051747;28;8800;-76
2021/12/14 11:50:12;;;;;;;;;186.33;183.17;;;;;;;;5067634;27;8928;-77
2021/12/14 11:52:50;;;;;;;;;181.60;177.60;;;;;;;;5051867;27;9796;-76
2021/12/14 11:55:19;;;;;;;;;179.00;174.40;;;;;;;;5068474;27;8790;-76
2021/12/14 11:57:45;;;;;;;;;179.80;175.00;;;;;;;;5053882;27;8899;-76
2021/12/14 12:00:13;;;;;;;;;165.75;160.00;;;;;;;;5050954;28;8965;-76
2021/12/14 12:02:38;;;;;;;;;188.00;185.75;;;;;;;;5051865;27;8815;-76
2021/12/14 12:05:18;;;;;;;;;199.60;197.40;;;;;;;;5051782;28;8812;-75
2021/12/14 12:10:44;;;;;;;;;189.00;182.60;;;;;;;;5091569;27;11528;-75
2021/12/14 12:13:09;;;;;;;;;179.00;176.00;;;;;;;;5052234;28;11607;-75
2021/12/14 12:15:39;;;;;;;;;185.50;176.75;;;;;;;;5052180;28;8800;-75
2021/12/14 12:18:05;;;;;;;;;194.00;188.60;;;;;;;;5051753;27;11587;-75
2021/12/14 12:20:32;;;;;;;;;205.00;195.25;;;;;;;;5052041;28;8796;-75
2021/12/14 12:23:02;;;;;;;;;207.80;201.60;;;;;;;;5051337;27;9741;-75
2021/12/14 12:25:32;;;;;;;;;197.50;194.50;;;;;;;;5051912;27;8790;-76
2021/12/14 12:28:01;;;;;;;;;201.80;200.00;;;;;;;;5054943;27;8820;-76
2021/12/14 12:30:34;;;;;;;;;192.20;190.80;;;;;;;;5051667;28;8908;-77
2021/12/14 12:33:03;;;;;;;;;221.80;216.60;;;;;;;;5051905;28;8791;-76
2021/12/14 12:35:29;;;;;;;;;191.00;184.00;;;;;;;;5048508;27;11117;-76
2021/12/14 12:37:55;;;;;;;;;161.75;154.25;;;;;;;;5051446;27;9626;-76
2021/12/14 12:40:31;;;;;;;;;185.60;181.40;;;;;;;;5052432;27;8892;-77
2021/12/14 12:43:17;;;;;;;;;196.80;192.60;;;;;;;;5052239;27;8812;-76
2021/12/14 12:45:51;;;;;;;;;215.17;211.83;;;;;;;;5047963;27;8846;-76
2021/12/14 12:48:36;;;;;;;;;190.40;187.60;;;;;;;;5050965;28;8748;-77
2021/12/14 12:51:02;;;;;;;;;204.20;201.20;;;;;;;;5051955;27;11619;-77
2021/12/14 12:53:28;;;;;;;;;204.20;202.60;;;;;;;;5051235;28;8914;-76
2021/12/14 12:56:02;;;;;;;;;219.00;212.67;;;;;;;;5068408;27;8769;-76
2021/12/14 12:58:27;;;;;;;;;199.20;194.20;;;;;;;;5054517;27;8740;-76
2021/12/14 13:00:56;;;;;;;;;208.33;204.33;;;;;;;;5050832;27;9520;-76
2021/12/14 13:03:27;;;;;;;;;171.00;165.00;;;;;;;;5049671;27;9006;-76
2021/12/14 13:05:56;;;;;;;;;155.20;151.20;;;;;;;;5066671;27;11531;-76
2021/12/14 13:08:26;;;;;;;;;154.40;150.40;;;;;;;;5061384;27;8932;-77
2021/12/14 13:10:54;;;;;;;;;152.60;150.80;;;;;;;;5050208;28;8814;-78
2021/12/14 13:13:25;;;;;;;;;165.00;161.60;;;;;;;;5051552;27;8878;-78
2021/12/14 13:16:00;;;;;;;;;144.80;142.20;;;;;;;;5048337;27;8784;-76
2021/12/14 13:18:25;;;;;;;;;156.25;154.75;;;;;;;;5051790;28;8796;-76
2021/12/14 13:20:52;;;;;;;;;159.25;153.75;;;;;;;;5051042;27;9091;-76
2021/12/14 13:23:35;;;;;;;;;153.00;147.80;;;;;;;;5049765;27;8749;-76
2021/12/14 13:26:00;;;;;;;;;153.20;147.40;;;;;;;;5050573;28;8785;-76
2021/12/14 13:28:37;;;;;;;;;143.50;139.50;;;;;;;;5051369;27;8840;-76
2021/12/14 13:31:02;;;;;;;;;150.00;144.80;;;;;;;;5050866;28;8792;-76
2021/12/14 13:33:29;;;;;;;;;159.40;154.60;;;;;;;;5050485;27;8832;-76
2021/12/14 13:35:55;;;;;;;;;168.00;160.20;;;;;;;;5054350;27;8788;-76
2021/12/14 13:38:20;;;;;;;;;160.75;159.25;;;;;;;;5051074;28;8827;-76
2021/12/14 13:40:46;;;;;;;;;139.67;137.67;;;;;;;;5051807;27;11285;-76
2021/12/14 13:43:11;;;;;;;;;144.50;138.00;;;;;;;;5052573;27;8873;-76
2021/12/14 13:45:39;;;;;;;;;147.25;143.75;;;;;;;;5053284;27;8797;-78
2021/12/14 13:48:05;;;;;;;;;143.20;136.00;;;;;;;;5045439;27;8932;-77
2021/12/14 13:50:33;;;;;;;;;156.20;152.20;;;;;;;;5049914;28;8796;-77
2021/12/14 13:52:59;;;;;;;;;157.40;152.40;;;;;;;;5050252;27;8822;-77
2021/12/14 13:55:24;;;;;;;;;158.50;154.50;;;;;;;;5102442;27;8806;-77
2021/12/14 13:57:55;;;;;;;;;153.33;147.67;;;;;;;;5070028;27;8801;-77
2021/12/14 14:00:34;;;;;;;;;136.80;132.40;;;;;;;;5051277;28;10848;-78
2021/12/14 14:02:59;;;;;;;;;145.20;141.00;;;;;;;;5057682;27;8804;-78
2021/12/14 14:05:25;;;;;;;;;161.20;159.00;;;;;;;;5049199;27;8892;-78
2021/12/14 14:07:53;;;;;;;;;167.80;161.80;;;;;;;;5061737;27;8808;-78
2021/12/14 14:10:18;;;;;;;;;143.00;137.00;;;;;;;;5050676;28;8777;-79
2021/12/14 14:12:54;;;;;;;;;145.60;139.00;;;;;;;;5049919;27;8814;-78
2021/12/14 14:15:24;;;;;;;;;181.17;177.67;;;;;;;;5050194;27;8796;-79
2021/12/14 14:17:51;;;;;;;;;160.00;157.80;;;;;;;;5048656;27;8808;-79
2021/12/14 14:20:22;;;;;;;;;179.33;169.50;;;;;;;;5047788;27;10817;-78
2021/12/14 14:22:48;;;;;;;;;181.50;177.67;;;;;;;;5046863;27;8804;-79
2021/12/14 14:25:21;;;;;;;;;189.67;185.83;;;;;;;;5049730;27;8930;-78
2021/12/14 14:27:52;;;;;;;;;199.00;195.50;;;;;;;;5050038;27;8776;-77
2021/12/14 14:30:20;;;;;;;;;174.00;166.40;;;;;;;;5050323;27;8780;-77
2021/12/14 14:33:10;;;;;;;;;234.67;228.17;;;;;;;;5049842;27;8788;-77
2021/12/14 14:35:40;;;;;;;;;190.20;186.40;;;;;;;;5051186;27;8861;-79
2021/12/14 14:38:25;;;;;;;;;250.00;248.40;;;;;;;;5048951;28;8855;-79
2021/12/14 14:40:55;;;;;;;;;201.33;197.67;;;;;;;;5050160;27;8817;-79
2021/12/14 14:43:21;;;;;;;;;134.83;129.00;;;;;;;;5063353;27;8862;-79
2021/12/14 14:45:46;;;;;;;;;176.40;174.60;;;;;;;;5049556;27;8800;-79
2021/12/14 14:48:20;;;;;;;;;173.00;168.00;;;;;;;;5049697;28;8878;-76
2021/12/14 14:50:46;;;;;;;;;180.50;175.50;;;;;;;;5049288;28;8772;-81
2021/12/14 14:53:13;;;;;;;;;227.20;219.80;;;;;;;;5047869;27;8888;-81